sensor_id;sensor_type;location;lat;lon;timestamp;P1;durP1;ratioP1;P2;durP2;ratioP2
60257;SDS011;46115;44.484;11.314;2023-12-14T00:06:51;71.70;;;33.08;;
60257;SDS011;46115;44.484;11.314;2023-12-14T00:10:55;66.60;;;31.35;;
60257;SDS011;46115;44.484;11.314;2023-12-14T00:14:57;70.35;;;31.23;;
60257;SDS011;46115;44.484;11.314;2023-12-14T00:19:00;74.57;;;33.22;;
60257;SDS011;46115;44.484;11.314;2023-12-14T00:23:03;69.85;;;32.78;;
60257;SDS011;46115;44.484;11.314;2023-12-14T00:27:07;68.75;;;32.17;;
60257;SDS011;46115;44.484;11.314;2023-12-14T00:31:09;70.68;;;31.45;;
60257;SDS011;46115;44.484;11.314;2023-12-14T00:39:14;71.28;;;32.03;;
60257;SDS011;46115;44.484;11.314;2023-12-14T00:47:19;82.63;;;32.75;;
60257;SDS011;46115;44.484;11.314;2023-12-14T00:51:22;61.85;;;29.88;;
60257;SDS011;46115;44.484;11.314;2023-12-14T00:55:24;63.65;;;30.30;;
60257;SDS011;46115;44.484;11.314;2023-12-14T00:59:28;77.80;;;33.95;;
60257;SDS011;46115;44.484;11.314;2023-12-14T01:03:31;84.88;;;35.08;;
60257;SDS011;46115;44.484;11.314;2023-12-14T01:11:35;88.32;;;36.15;;
60257;SDS011;46115;44.484;11.314;2023-12-14T01:15:39;85.85;;;36.35;;
60257;SDS011;46115;44.484;11.314;2023-12-14T01:19:41;85.22;;;35.88;;
60257;SDS011;46115;44.484;11.314;2023-12-14T01:23:44;87.60;;;36.75;;
60257;SDS011;46115;44.484;11.314;2023-12-14T01:31:49;95.57;;;38.30;;
60257;SDS011;46115;44.484;11.314;2023-12-14T01:35:52;78.57;;;35.95;;
60257;SDS011;46115;44.484;11.314;2023-12-14T01:39:54;88.07;;;37.65;;
60257;SDS011;46115;44.484;11.314;2023-12-14T01:43:57;111.95;;;38.90;;
60257;SDS011;46115;44.484;11.314;2023-12-14T01:48:00;82.18;;;35.28;;
60257;SDS011;46115;44.484;11.314;2023-12-14T01:52:03;92.70;;;36.53;;
60257;SDS011;46115;44.484;11.314;2023-12-14T01:56:06;102.57;;;37.92;;
60257;SDS011;46115;44.484;11.314;2023-12-14T02:00:10;82.85;;;35.22;;
60257;SDS011;46115;44.484;11.314;2023-12-14T02:04:25;86.05;;;37.38;;
60257;SDS011;46115;44.484;11.314;2023-12-14T02:08:28;104.65;;;39.85;;
60257;SDS011;46115;44.484;11.314;2023-12-14T02:12:30;111.10;;;38.30;;
60257;SDS011;46115;44.484;11.314;2023-12-14T02:16:34;103.53;;;35.35;;
60257;SDS011;46115;44.484;11.314;2023-12-14T02:20:40;114.72;;;35.13;;
60257;SDS011;46115;44.484;11.314;2023-12-14T02:24:44;74.88;;;30.13;;
60257;SDS011;46115;44.484;11.314;2023-12-14T02:28:46;96.15;;;31.48;;
60257;SDS011;46115;44.484;11.314;2023-12-14T02:32:49;77.82;;;30.30;;
60257;SDS011;46115;44.484;11.314;2023-12-14T02:40:55;107.57;;;30.30;;
60257;SDS011;46115;44.484;11.314;2023-12-14T02:44:57;73.32;;;28.70;;
60257;SDS011;46115;44.484;11.314;2023-12-14T02:48:59;73.10;;;26.30;;
60257;SDS011;46115;44.484;11.314;2023-12-14T02:57:05;61.75;;;25.08;;
60257;SDS011;46115;44.484;11.314;2023-12-14T03:01:08;57.72;;;23.48;;
60257;SDS011;46115;44.484;11.314;2023-12-14T03:09:12;59.00;;;23.00;;
60257;SDS011;46115;44.484;11.314;2023-12-14T03:13:16;73.10;;;22.13;;
60257;SDS011;46115;44.484;11.314;2023-12-14T03:17:19;54.75;;;21.58;;
60257;SDS011;46115;44.484;11.314;2023-12-14T03:21:21;56.50;;;21.40;;
60257;SDS011;46115;44.484;11.314;2023-12-14T03:25:24;45.20;;;19.10;;
60257;SDS011;46115;44.484;11.314;2023-12-14T03:29:28;44.85;;;18.25;;
60257;SDS011;46115;44.484;11.314;2023-12-14T03:33:30;49.95;;;19.55;;
60257;SDS011;46115;44.484;11.314;2023-12-14T03:41:35;43.05;;;18.15;;
60257;SDS011;46115;44.484;11.314;2023-12-14T03:45:39;58.13;;;19.60;;
60257;SDS011;46115;44.484;11.314;2023-12-14T03:49:41;68.60;;;19.45;;
60257;SDS011;46115;44.484;11.314;2023-12-14T03:53:44;50.33;;;19.80;;
60257;SDS011;46115;44.484;11.314;2023-12-14T03:57:46;53.60;;;18.25;;
60257;SDS011;46115;44.484;11.314;2023-12-14T04:01:50;45.15;;;18.73;;
60257;SDS011;46115;44.484;11.314;2023-12-14T04:05:52;44.00;;;18.80;;
60257;SDS011;46115;44.484;11.314;2023-12-14T04:13:58;47.33;;;19.20;;
60257;SDS011;46115;44.484;11.314;2023-12-14T04:18:02;62.20;;;20.35;;
60257;SDS011;46115;44.484;11.314;2023-12-14T04:22:04;55.22;;;19.73;;
60257;SDS011;46115;44.484;11.314;2023-12-14T04:26:06;46.20;;;18.63;;
60257;SDS011;46115;44.484;11.314;2023-12-14T04:30:10;46.63;;;18.60;;
60257;SDS011;46115;44.484;11.314;2023-12-14T04:34:14;47.58;;;18.80;;
60257;SDS011;46115;44.484;11.314;2023-12-14T04:38:18;49.05;;;19.38;;
60257;SDS011;46115;44.484;11.314;2023-12-14T04:46:22;51.90;;;19.67;;
60257;SDS011;46115;44.484;11.314;2023-12-14T04:50:26;50.78;;;18.92;;
60257;SDS011;46115;44.484;11.314;2023-12-14T04:54:28;51.50;;;19.45;;
60257;SDS011;46115;44.484;11.314;2023-12-14T05:02:33;45.30;;;19.52;;
60257;SDS011;46115;44.484;11.314;2023-12-14T05:10:39;46.80;;;19.60;;
60257;SDS011;46115;44.484;11.314;2023-12-14T05:18:44;47.42;;;19.67;;
60257;SDS011;46115;44.484;11.314;2023-12-14T05:22:47;51.03;;;20.50;;
60257;SDS011;46115;44.484;11.314;2023-12-14T05:26:50;42.33;;;18.55;;
60257;SDS011;46115;44.484;11.314;2023-12-14T05:34:54;50.38;;;20.92;;
60257;SDS011;46115;44.484;11.314;2023-12-14T05:47:21;50.42;;;21.15;;
60257;SDS011;46115;44.484;11.314;2023-12-14T05:51:27;57.47;;;24.15;;
60257;SDS011;46115;44.484;11.314;2023-12-14T05:55:32;56.65;;;23.38;;
60257;SDS011;46115;44.484;11.314;2023-12-14T05:59:34;52.38;;;22.85;;
60257;SDS011;46115;44.484;11.314;2023-12-14T06:07:38;53.72;;;21.50;;
60257;SDS011;46115;44.484;11.314;2023-12-14T06:11:42;51.72;;;21.55;;
60257;SDS011;46115;44.484;11.314;2023-12-14T06:15:45;48.50;;;21.70;;
60257;SDS011;46115;44.484;11.314;2023-12-14T06:19:47;46.22;;;20.88;;
60257;SDS011;46115;44.484;11.314;2023-12-14T06:23:49;45.15;;;21.20;;
60257;SDS011;46115;44.484;11.314;2023-12-14T06:27:53;45.58;;;20.45;;
60257;SDS011;46115;44.484;11.314;2023-12-14T06:31:56;47.25;;;21.65;;
60257;SDS011;46115;44.484;11.314;2023-12-14T06:36:02;42.13;;;20.58;;
60257;SDS011;46115;44.484;11.314;2023-12-14T06:40:06;45.45;;;21.13;;
60257;SDS011;46115;44.484;11.314;2023-12-14T06:44:10;41.53;;;20.00;;
60257;SDS011;46115;44.484;11.314;2023-12-14T06:48:13;42.13;;;20.60;;
60257;SDS011;46115;44.484;11.314;2023-12-14T06:52:16;43.28;;;21.95;;
60257;SDS011;46115;44.484;11.314;2023-12-14T06:56:18;44.58;;;21.83;;
60257;SDS011;46115;44.484;11.314;2023-12-14T07:00:22;42.55;;;21.20;;
60257;SDS011;46115;44.484;11.314;2023-12-14T07:04:25;47.00;;;23.17;;
60257;SDS011;46115;44.484;11.314;2023-12-14T07:08:27;37.42;;;19.77;;
60257;SDS011;46115;44.484;11.314;2023-12-14T07:12:30;38.58;;;19.98;;
60257;SDS011;46115;44.484;11.314;2023-12-14T07:16:33;39.10;;;19.92;;
60257;SDS011;46115;44.484;11.314;2023-12-14T07:20:36;37.97;;;20.15;;
60257;SDS011;46115;44.484;11.314;2023-12-14T07:24:38;38.88;;;20.30;;
60257;SDS011;46115;44.484;11.314;2023-12-14T07:28:41;34.25;;;18.88;;
60257;SDS011;46115;44.484;11.314;2023-12-14T07:32:44;33.83;;;18.02;;
60257;SDS011;46115;44.484;11.314;2023-12-14T07:36:47;36.67;;;18.88;;
60257;SDS011;46115;44.484;11.314;2023-12-14T07:40:50;33.33;;;19.60;;
60257;SDS011;46115;44.484;11.314;2023-12-14T07:44:53;35.80;;;18.40;;
60257;SDS011;46115;44.484;11.314;2023-12-14T07:48:57;32.25;;;18.42;;
60257;SDS011;46115;44.484;11.314;2023-12-14T07:52:59;29.13;;;15.40;;
60257;SDS011;46115;44.484;11.314;2023-12-14T07:57:02;36.38;;;17.67;;
60257;SDS011;46115;44.484;11.314;2023-12-14T08:01:05;31.65;;;17.23;;
60257;SDS011;46115;44.484;11.314;2023-12-14T08:05:09;31.50;;;17.17;;
60257;SDS011;46115;44.484;11.314;2023-12-14T08:09:11;36.88;;;20.08;;
60257;SDS011;46115;44.484;11.314;2023-12-14T08:13:14;31.65;;;19.65;;
60257;SDS011;46115;44.484;11.314;2023-12-14T08:17:17;37.55;;;20.30;;
60257;SDS011;46115;44.484;11.314;2023-12-14T08:21:21;33.63;;;19.10;;
60257;SDS011;46115;44.484;11.314;2023-12-14T08:25:23;32.47;;;19.52;;
60257;SDS011;46115;44.484;11.314;2023-12-14T08:29:26;41.53;;;24.05;;
60257;SDS011;46115;44.484;11.314;2023-12-14T08:33:29;47.03;;;23.58;;
60257;SDS011;46115;44.484;11.314;2023-12-14T08:37:33;41.05;;;24.20;;
60257;SDS011;46115;44.484;11.314;2023-12-14T08:41:37;38.05;;;20.50;;
60257;SDS011;46115;44.484;11.314;2023-12-14T08:45:39;40.05;;;20.38;;
60257;SDS011;46115;44.484;11.314;2023-12-14T08:49:42;45.05;;;26.50;;
60257;SDS011;46115;44.484;11.314;2023-12-14T08:53:46;34.40;;;21.00;;
60257;SDS011;46115;44.484;11.314;2023-12-14T08:57:48;38.22;;;22.27;;
60257;SDS011;46115;44.484;11.314;2023-12-14T09:01:51;45.83;;;26.35;;
60257;SDS011;46115;44.484;11.314;2023-12-14T09:05:53;38.38;;;23.17;;
60257;SDS011;46115;44.484;11.314;2023-12-14T09:09:57;37.55;;;23.42;;
60257;SDS011;46115;44.484;11.314;2023-12-14T09:14:00;42.17;;;23.83;;
60257;SDS011;46115;44.484;11.314;2023-12-14T09:18:03;45.92;;;27.17;;
60257;SDS011;46115;44.484;11.314;2023-12-14T09:22:06;42.65;;;25.30;;
60257;SDS011;46115;44.484;11.314;2023-12-14T09:26:10;43.88;;;25.45;;
60257;SDS011;46115;44.484;11.314;2023-12-14T09:30:12;53.38;;;30.50;;
60257;SDS011;46115;44.484;11.314;2023-12-14T09:34:15;56.88;;;31.50;;
60257;SDS011;46115;44.484;11.314;2023-12-14T09:38:18;52.90;;;31.38;;
60257;SDS011;46115;44.484;11.314;2023-12-14T09:42:22;57.08;;;32.00;;
60257;SDS011;46115;44.484;11.314;2023-12-14T09:46:24;55.47;;;32.97;;
60257;SDS011;46115;44.484;11.314;2023-12-14T09:50:29;54.15;;;32.50;;
60257;SDS011;46115;44.484;11.314;2023-12-14T09:54:36;53.25;;;32.05;;
60257;SDS011;46115;44.484;11.314;2023-12-14T09:58:40;58.25;;;35.67;;
60257;SDS011;46115;44.484;11.314;2023-12-14T10:02:43;65.78;;;34.72;;
60257;SDS011;46115;44.484;11.314;2023-12-14T10:10:48;62.90;;;34.60;;
60257;SDS011;46115;44.484;11.314;2023-12-14T10:15:01;63.83;;;37.03;;
60257;SDS011;46115;44.484;11.314;2023-12-14T10:19:07;66.75;;;36.75;;
60257;SDS011;46115;44.484;11.314;2023-12-14T10:23:09;64.68;;;36.10;;
60257;SDS011;46115;44.484;11.314;2023-12-14T10:27:11;59.05;;;32.60;;
60257;SDS011;46115;44.484;11.314;2023-12-14T10:31:18;60.83;;;33.20;;
60257;SDS011;46115;44.484;11.314;2023-12-14T10:35:22;58.40;;;33.25;;
60257;SDS011;46115;44.484;11.314;2023-12-14T10:39:24;64.75;;;33.22;;
60257;SDS011;46115;44.484;11.314;2023-12-14T10:43:28;60.38;;;33.22;;
60257;SDS011;46115;44.484;11.314;2023-12-14T10:47:34;56.88;;;32.97;;
60257;SDS011;46115;44.484;11.314;2023-12-14T10:51:37;64.53;;;34.60;;
60257;SDS011;46115;44.484;11.314;2023-12-14T10:55:44;57.05;;;33.33;;
60257;SDS011;46115;44.484;11.314;2023-12-14T10:59:48;54.05;;;31.67;;
60257;SDS011;46115;44.484;11.314;2023-12-14T11:03:53;50.20;;;31.00;;
60257;SDS011;46115;44.484;11.314;2023-12-14T11:07:59;52.40;;;32.20;;
60257;SDS011;46115;44.484;11.314;2023-12-14T11:12:04;50.47;;;32.30;;
60257;SDS011;46115;44.484;11.314;2023-12-14T11:16:09;50.53;;;30.80;;
60257;SDS011;46115;44.484;11.314;2023-12-14T11:20:26;57.83;;;33.55;;
60257;SDS011;46115;44.484;11.314;2023-12-14T11:24:29;59.78;;;35.42;;
60257;SDS011;46115;44.484;11.314;2023-12-14T11:28:32;60.15;;;36.45;;
60257;SDS011;46115;44.484;11.314;2023-12-14T11:32:36;62.00;;;36.45;;
60257;SDS011;46115;44.484;11.314;2023-12-14T11:36:40;52.92;;;33.95;;
60257;SDS011;46115;44.484;11.314;2023-12-14T11:40:43;51.15;;;32.65;;
60257;SDS011;46115;44.484;11.314;2023-12-14T11:44:45;59.08;;;36.83;;
60257;SDS011;46115;44.484;11.314;2023-12-14T11:48:48;66.35;;;38.72;;
60257;SDS011;46115;44.484;11.314;2023-12-14T11:52:52;63.92;;;37.45;;
60257;SDS011;46115;44.484;11.314;2023-12-14T11:56:55;66.88;;;38.10;;
60257;SDS011;46115;44.484;11.314;2023-12-14T12:01:03;66.22;;;37.13;;
60257;SDS011;46115;44.484;11.314;2023-12-14T12:05:13;63.67;;;36.28;;
60257;SDS011;46115;44.484;11.314;2023-12-14T12:13:42;64.68;;;35.80;;
60257;SDS011;46115;44.484;11.314;2023-12-14T12:17:45;59.60;;;33.97;;
60257;SDS011;46115;44.484;11.314;2023-12-14T12:21:47;56.38;;;34.25;;
60257;SDS011;46115;44.484;11.314;2023-12-14T12:25:51;59.65;;;34.10;;
60257;SDS011;46115;44.484;11.314;2023-12-14T12:29:56;60.17;;;34.70;;
60257;SDS011;46115;44.484;11.314;2023-12-14T12:33:58;55.90;;;35.05;;
60257;SDS011;46115;44.484;11.314;2023-12-14T12:38:01;60.83;;;35.65;;
60257;SDS011;46115;44.484;11.314;2023-12-14T12:42:05;58.30;;;33.58;;
60257;SDS011;46115;44.484;11.314;2023-12-14T12:46:08;55.53;;;33.65;;
60257;SDS011;46115;44.484;11.314;2023-12-14T12:50:10;55.53;;;32.50;;
60257;SDS011;46115;44.484;11.314;2023-12-14T12:54:13;52.83;;;33.67;;
60257;SDS011;46115;44.484;11.314;2023-12-14T12:58:17;51.00;;;31.70;;
60257;SDS011;46115;44.484;11.314;2023-12-14T13:02:19;51.70;;;33.28;;
60257;SDS011;46115;44.484;11.314;2023-12-14T13:06:22;51.13;;;32.83;;
60257;SDS011;46115;44.484;11.314;2023-12-14T13:10:26;55.50;;;35.40;;
60257;SDS011;46115;44.484;11.314;2023-12-14T13:14:29;51.28;;;32.58;;
60257;SDS011;46115;44.484;11.314;2023-12-14T13:18:33;50.65;;;34.25;;
60257;SDS011;46115;44.484;11.314;2023-12-14T13:22:36;52.40;;;35.25;;
60257;SDS011;46115;44.484;11.314;2023-12-14T13:26:38;53.30;;;33.05;;
60257;SDS011;46115;44.484;11.314;2023-12-14T13:30:42;53.15;;;35.17;;
60257;SDS011;46115;44.484;11.314;2023-12-14T13:34:45;48.00;;;33.13;;
60257;SDS011;46115;44.484;11.314;2023-12-14T13:38:47;45.30;;;32.42;;
60257;SDS011;46115;44.484;11.314;2023-12-14T13:42:50;45.95;;;31.55;;
60257;SDS011;46115;44.484;11.314;2023-12-14T13:46:53;48.80;;;33.00;;
60257;SDS011;46115;44.484;11.314;2023-12-14T13:50:56;48.85;;;31.92;;
60257;SDS011;46115;44.484;11.314;2023-12-14T13:54:58;49.15;;;31.67;;
60257;SDS011;46115;44.484;11.314;2023-12-14T13:59:01;46.88;;;30.00;;
60257;SDS011;46115;44.484;11.314;2023-12-14T14:03:05;44.72;;;29.55;;
60257;SDS011;46115;44.484;11.314;2023-12-14T14:07:08;45.78;;;29.75;;
60257;SDS011;46115;44.484;11.314;2023-12-14T14:11:11;47.47;;;29.95;;
60257;SDS011;46115;44.484;11.314;2023-12-14T14:15:14;45.45;;;28.92;;
60257;SDS011;46115;44.484;11.314;2023-12-14T14:19:18;46.00;;;29.13;;
60257;SDS011;46115;44.484;11.314;2023-12-14T14:23:20;45.20;;;30.13;;
60257;SDS011;46115;44.484;11.314;2023-12-14T14:27:23;46.85;;;28.58;;
60257;SDS011;46115;44.484;11.314;2023-12-14T14:31:25;43.60;;;28.35;;
60257;SDS011;46115;44.484;11.314;2023-12-14T14:35:32;45.42;;;29.63;;
60257;SDS011;46115;44.484;11.314;2023-12-14T14:39:37;40.22;;;27.35;;
60257;SDS011;46115;44.484;11.314;2023-12-14T14:43:43;42.20;;;29.48;;
60257;SDS011;46115;44.484;11.314;2023-12-14T14:47:46;43.88;;;28.65;;
60257;SDS011;46115;44.484;11.314;2023-12-14T14:51:50;43.75;;;29.73;;
60257;SDS011;46115;44.484;11.314;2023-12-14T14:55:52;41.60;;;27.17;;
60257;SDS011;46115;44.484;11.314;2023-12-14T14:59:56;42.83;;;26.42;;
60257;SDS011;46115;44.484;11.314;2023-12-14T15:03:58;36.28;;;26.50;;
60257;SDS011;46115;44.484;11.314;2023-12-14T15:08:03;39.38;;;27.02;;
60257;SDS011;46115;44.484;11.314;2023-12-14T15:12:07;38.70;;;27.67;;
60257;SDS011;46115;44.484;11.314;2023-12-14T15:16:09;38.00;;;27.08;;
60257;SDS011;46115;44.484;11.314;2023-12-14T15:20:12;39.13;;;28.65;;
60257;SDS011;46115;44.484;11.314;2023-12-14T15:24:16;38.67;;;27.38;;
60257;SDS011;46115;44.484;11.314;2023-12-14T15:28:19;39.80;;;26.40;;
60257;SDS011;46115;44.484;11.314;2023-12-14T15:32:21;37.60;;;26.58;;
60257;SDS011;46115;44.484;11.314;2023-12-14T15:36:24;39.50;;;26.80;;
60257;SDS011;46115;44.484;11.314;2023-12-14T15:40:28;39.10;;;26.25;;
60257;SDS011;46115;44.484;11.314;2023-12-14T15:44:30;37.53;;;24.60;;
60257;SDS011;46115;44.484;11.314;2023-12-14T15:48:32;36.67;;;26.10;;
60257;SDS011;46115;44.484;11.314;2023-12-14T23:06:09;28.10;;;18.00;;
60257;SDS011;46115;44.484;11.314;2023-12-14T23:10:12;29.23;;;18.00;;
60257;SDS011;46115;44.484;11.314;2023-12-14T23:14:15;28.23;;;16.45;;
60257;SDS011;46115;44.484;11.314;2023-12-14T23:18:17;25.73;;;17.00;;
60257;SDS011;46115;44.484;11.314;2023-12-14T23:22:23;26.15;;;16.67;;
60257;SDS011;46115;44.484;11.314;2023-12-14T23:26:25;28.33;;;17.52;;
60257;SDS011;46115;44.484;11.314;2023-12-14T23:30:28;23.52;;;16.13;;
60257;SDS011;46115;44.484;11.314;2023-12-14T23:34:30;26.10;;;16.10;;
60257;SDS011;46115;44.484;11.314;2023-12-14T23:38:34;28.38;;;16.77;;
60257;SDS011;46115;44.484;11.314;2023-12-14T23:42:37;31.35;;;19.83;;
60257;SDS011;46115;44.484;11.314;2023-12-14T23:46:39;33.35;;;20.63;;
60257;SDS011;46115;44.484;11.314;2023-12-14T23:50:42;34.75;;;20.83;;
60257;SDS011;46115;44.484;11.314;2023-12-14T23:54:46;39.92;;;24.08;;
60257;SDS011;46115;44.484;11.314;2023-12-14T23:58:48;39.88;;;22.65;;
